sensor_id;sensor_type;location;lat;lon;timestamp;temperature;humidity
15105;DHT22;7653;48.994;9.212;2023-04-03T00:01:09;4.40;36.90
15105;DHT22;7653;48.994;9.212;2023-04-03T00:03:36;4.40;37.60
15105;DHT22;7653;48.994;9.212;2023-04-03T00:06:03;4.20;38.70
15105;DHT22;7653;48.994;9.212;2023-04-03T00:08:29;4.30;38.30
15105;DHT22;7653;48.994;9.212;2023-04-03T00:10:56;4.30;38.70
15105;DHT22;7653;48.994;9.212;2023-04-03T00:13:23;4.40;38.70
15105;DHT22;7653;48.994;9.212;2023-04-03T00:15:49;4.30;38.70
15105;DHT22;7653;48.994;9.212;2023-04-03T00:18:14;4.30;38.70
15105;DHT22;7653;48.994;9.212;2023-04-03T00:20:40;4.30;39.20
15105;DHT22;7653;48.994;9.212;2023-04-03T00:23:06;4.30;40.10
15105;DHT22;7653;48.994;9.212;2023-04-03T00:25:35;4.20;40.40
15105;DHT22;7653;48.994;9.212;2023-04-03T00:28:02;4.10;40.60
15105;DHT22;7653;48.994;9.212;2023-04-03T00:30:28;4.20;40.10
15105;DHT22;7653;48.994;9.212;2023-04-03T00:32:53;4.20;39.30
15105;DHT22;7653;48.994;9.212;2023-04-03T00:35:21;4.30;39.50
15105;DHT22;7653;48.994;9.212;2023-04-03T00:37:47;4.20;38.70
15105;DHT22;7653;48.994;9.212;2023-04-03T00:40:14;4.20;39.50
15105;DHT22;7653;48.994;9.212;2023-04-03T00:42:41;4.20;39.60
15105;DHT22;7653;48.994;9.212;2023-04-03T00:47:37;4.20;39.70
15105;DHT22;7653;48.994;9.212;2023-04-03T00:50:04;4.20;39.70
15105;DHT22;7653;48.994;9.212;2023-04-03T00:52:31;4.10;39.90
15105;DHT22;7653;48.994;9.212;2023-04-03T00:55:00;4.10;40.00
15105;DHT22;7653;48.994;9.212;2023-04-03T00:57:27;4.00;40.20
15105;DHT22;7653;48.994;9.212;2023-04-03T00:59:59;4.00;39.80
15105;DHT22;7653;48.994;9.212;2023-04-03T01:02:27;3.90;40.70
15105;DHT22;7653;48.994;9.212;2023-04-03T01:04:52;4.00;40.80
15105;DHT22;7653;48.994;9.212;2023-04-03T01:07:21;3.90;40.10
15105;DHT22;7653;48.994;9.212;2023-04-03T01:09:48;3.90;39.50
15105;DHT22;7653;48.994;9.212;2023-04-03T01:12:20;3.80;39.80
15105;DHT22;7653;48.994;9.212;2023-04-03T01:14:50;3.70;40.20
15105;DHT22;7653;48.994;9.212;2023-04-03T01:28:04;3.80;39.30
15105;DHT22;7653;48.994;9.212;2023-04-03T01:30:37;3.80;38.90
15105;DHT22;7653;48.994;9.212;2023-04-03T01:33:04;3.70;38.80
15105;DHT22;7653;48.994;9.212;2023-04-03T01:35:30;3.80;38.50
15105;DHT22;7653;48.994;9.212;2023-04-03T01:37:56;3.80;37.50
15105;DHT22;7653;48.994;9.212;2023-04-03T01:40:21;3.70;38.00
15105;DHT22;7653;48.994;9.212;2023-04-03T01:42:47;3.80;37.60
15105;DHT22;7653;48.994;9.212;2023-04-03T01:45:13;3.70;37.00
15105;DHT22;7653;48.994;9.212;2023-04-03T01:47:38;3.70;36.40
15105;DHT22;7653;48.994;9.212;2023-04-03T01:50:04;3.60;37.70
15105;DHT22;7653;48.994;9.212;2023-04-03T01:52:30;3.60;37.50
15105;DHT22;7653;48.994;9.212;2023-04-03T01:54:55;3.60;37.30
15105;DHT22;7653;48.994;9.212;2023-04-03T01:57:21;3.70;37.00
15105;DHT22;7653;48.994;9.212;2023-04-03T01:59:47;3.70;36.30
15105;DHT22;7653;48.994;9.212;2023-04-03T02:02:12;3.70;36.30
15105;DHT22;7653;48.994;9.212;2023-04-03T02:04:40;3.70;34.70
15105;DHT22;7653;48.994;9.212;2023-04-03T02:07:06;3.70;34.60
15105;DHT22;7653;48.994;9.212;2023-04-03T02:09:32;3.70;35.40
15105;DHT22;7653;48.994;9.212;2023-04-03T02:11:57;3.60;35.10
15105;DHT22;7653;48.994;9.212;2023-04-03T02:14:23;3.60;36.30
15105;DHT22;7653;48.994;9.212;2023-04-03T02:16:49;3.60;35.40
15105;DHT22;7653;48.994;9.212;2023-04-03T02:19:15;3.60;34.30
15105;DHT22;7653;48.994;9.212;2023-04-03T02:21:41;3.60;34.90
15105;DHT22;7653;48.994;9.212;2023-04-03T02:24:07;3.70;35.00
15105;DHT22;7653;48.994;9.212;2023-04-03T02:26:32;3.80;34.90
15105;DHT22;7653;48.994;9.212;2023-04-03T02:28:58;3.80;34.40
15105;DHT22;7653;48.994;9.212;2023-04-03T02:31:23;3.90;34.30
15105;DHT22;7653;48.994;9.212;2023-04-03T02:33:49;3.90;34.00
15105;DHT22;7653;48.994;9.212;2023-04-03T02:36:15;3.90;34.60
15105;DHT22;7653;48.994;9.212;2023-04-03T02:38:41;4.00;34.40
15105;DHT22;7653;48.994;9.212;2023-04-03T02:41:09;4.10;34.70
15105;DHT22;7653;48.994;9.212;2023-04-03T02:43:35;4.00;33.40
15105;DHT22;7653;48.994;9.212;2023-04-03T02:46:01;4.00;34.30
15105;DHT22;7653;48.994;9.212;2023-04-03T02:48:27;4.00;35.00
15105;DHT22;7653;48.994;9.212;2023-04-03T02:50:52;4.00;33.00
15105;DHT22;7653;48.994;9.212;2023-04-03T02:53:18;4.00;33.20
15105;DHT22;7653;48.994;9.212;2023-04-03T02:55:44;4.10;33.50
15105;DHT22;7653;48.994;9.212;2023-04-03T02:58:10;4.10;33.70
15105;DHT22;7653;48.994;9.212;2023-04-03T03:00:36;4.00;33.60
15105;DHT22;7653;48.994;9.212;2023-04-03T03:03:02;4.10;33.70
15105;DHT22;7653;48.994;9.212;2023-04-03T03:05:28;4.10;33.60
15105;DHT22;7653;48.994;9.212;2023-04-03T03:07:53;4.10;33.50
15105;DHT22;7653;48.994;9.212;2023-04-03T03:10:20;4.10;33.50
15105;DHT22;7653;48.994;9.212;2023-04-03T03:12:45;4.10;34.00
15105;DHT22;7653;48.994;9.212;2023-04-03T03:15:11;4.10;33.80
15105;DHT22;7653;48.994;9.212;2023-04-03T03:17:37;4.10;34.20
15105;DHT22;7653;48.994;9.212;2023-04-03T03:20:04;4.00;35.60
15105;DHT22;7653;48.994;9.212;2023-04-03T03:22:31;4.00;36.20
15105;DHT22;7653;48.994;9.212;2023-04-03T03:24:57;4.00;36.50
15105;DHT22;7653;48.994;9.212;2023-04-03T03:27:22;4.00;35.90
15105;DHT22;7653;48.994;9.212;2023-04-03T03:29:49;4.00;37.30
15105;DHT22;7653;48.994;9.212;2023-04-03T03:32:15;4.00;35.80
15105;DHT22;7653;48.994;9.212;2023-04-03T03:34:40;4.00;34.70
15105;DHT22;7653;48.994;9.212;2023-04-03T03:37:06;4.00;34.20
15105;DHT22;7653;48.994;9.212;2023-04-03T03:39:31;4.00;35.10
15105;DHT22;7653;48.994;9.212;2023-04-03T03:41:57;4.00;35.20
15105;DHT22;7653;48.994;9.212;2023-04-03T03:44:23;3.90;35.60
15105;DHT22;7653;48.994;9.212;2023-04-03T03:46:48;3.90;36.00
15105;DHT22;7653;48.994;9.212;2023-04-03T03:49:14;3.90;35.40
15105;DHT22;7653;48.994;9.212;2023-04-03T03:51:39;3.90;35.30
15105;DHT22;7653;48.994;9.212;2023-04-03T03:54:06;4.10;36.10
15105;DHT22;7653;48.994;9.212;2023-04-03T03:56:33;4.10;36.10
15105;DHT22;7653;48.994;9.212;2023-04-03T03:58:58;4.10;36.10
15105;DHT22;7653;48.994;9.212;2023-04-03T04:01:24;4.10;36.70
15105;DHT22;7653;48.994;9.212;2023-04-03T04:03:50;4.10;37.70
15105;DHT22;7653;48.994;9.212;2023-04-03T04:06:16;4.00;36.60
15105;DHT22;7653;48.994;9.212;2023-04-03T04:08:42;3.90;37.50
15105;DHT22;7653;48.994;9.212;2023-04-03T04:11:08;3.70;38.50
15105;DHT22;7653;48.994;9.212;2023-04-03T04:13:34;3.70;36.80
15105;DHT22;7653;48.994;9.212;2023-04-03T04:16:00;3.70;37.70
15105;DHT22;7653;48.994;9.212;2023-04-03T04:18:26;3.90;38.20
15105;DHT22;7653;48.994;9.212;2023-04-03T04:20:52;3.90;37.70
15105;DHT22;7653;48.994;9.212;2023-04-03T04:23:18;3.80;36.40
15105;DHT22;7653;48.994;9.212;2023-04-03T04:25:45;3.70;37.90
15105;DHT22;7653;48.994;9.212;2023-04-03T04:28:11;3.70;37.50
15105;DHT22;7653;48.994;9.212;2023-04-03T04:30:37;3.70;36.40
15105;DHT22;7653;48.994;9.212;2023-04-03T04:33:03;3.60;37.00
15105;DHT22;7653;48.994;9.212;2023-04-03T04:35:29;3.60;37.30
15105;DHT22;7653;48.994;9.212;2023-04-03T04:37:54;3.50;38.60
15105;DHT22;7653;48.994;9.212;2023-04-03T04:40:20;3.50;39.70
15105;DHT22;7653;48.994;9.212;2023-04-03T04:42:46;3.50;39.50
15105;DHT22;7653;48.994;9.212;2023-04-03T04:45:12;3.50;39.10
15105;DHT22;7653;48.994;9.212;2023-04-03T04:47:37;3.40;37.10
15105;DHT22;7653;48.994;9.212;2023-04-03T04:50:03;3.40;37.60
15105;DHT22;7653;48.994;9.212;2023-04-03T04:52:29;3.40;37.90
15105;DHT22;7653;48.994;9.212;2023-04-03T04:54:55;3.40;37.70
15105;DHT22;7653;48.994;9.212;2023-04-03T04:57:21;3.40;38.30
15105;DHT22;7653;48.994;9.212;2023-04-03T04:59:46;3.50;37.90
15105;DHT22;7653;48.994;9.212;2023-04-03T05:02:12;3.50;36.30
15105;DHT22;7653;48.994;9.212;2023-04-03T05:04:37;3.40;36.10
15105;DHT22;7653;48.994;9.212;2023-04-03T05:07:03;3.40;36.10
15105;DHT22;7653;48.994;9.212;2023-04-03T05:09:29;3.50;36.20
15105;DHT22;7653;48.994;9.212;2023-04-03T05:11:55;3.40;36.80
15105;DHT22;7653;48.994;9.212;2023-04-03T05:14:21;3.30;37.00
15105;DHT22;7653;48.994;9.212;2023-04-03T05:16:47;3.40;36.10
15105;DHT22;7653;48.994;9.212;2023-04-03T05:19:13;3.30;36.00
15105;DHT22;7653;48.994;9.212;2023-04-03T05:21:39;3.40;36.10
15105;DHT22;7653;48.994;9.212;2023-04-03T05:24:05;3.30;37.10
15105;DHT22;7653;48.994;9.212;2023-04-03T05:26:34;3.30;38.10
15105;DHT22;7653;48.994;9.212;2023-04-03T05:29:00;3.20;38.00
15105;DHT22;7653;48.994;9.212;2023-04-03T05:31:25;3.20;37.00
15105;DHT22;7653;48.994;9.212;2023-04-03T05:33:54;3.20;37.80
15105;DHT22;7653;48.994;9.212;2023-04-03T05:36:20;3.10;37.30
15105;DHT22;7653;48.994;9.212;2023-04-03T05:38:46;3.20;38.30
15105;DHT22;7653;48.994;9.212;2023-04-03T05:41:12;3.20;38.30
15105;DHT22;7653;48.994;9.212;2023-04-03T05:43:38;3.20;37.40
15105;DHT22;7653;48.994;9.212;2023-04-03T05:46:08;3.20;37.50
15105;DHT22;7653;48.994;9.212;2023-04-03T05:48:33;3.20;38.50
15105;DHT22;7653;48.994;9.212;2023-04-03T05:50:59;3.20;38.70
15105;DHT22;7653;48.994;9.212;2023-04-03T05:53:28;3.30;38.60
15105;DHT22;7653;48.994;9.212;2023-04-03T05:55:54;3.40;36.90
15105;DHT22;7653;48.994;9.212;2023-04-03T05:58:20;3.30;37.10
15105;DHT22;7653;48.994;9.212;2023-04-03T06:00:46;3.30;37.50
15105;DHT22;7653;48.994;9.212;2023-04-03T06:03:12;3.40;37.00
15105;DHT22;7653;48.994;9.212;2023-04-03T06:05:38;3.40;36.10
15105;DHT22;7653;48.994;9.212;2023-04-03T06:08:03;3.50;37.00
15105;DHT22;7653;48.994;9.212;2023-04-03T06:10:29;3.60;36.30
15105;DHT22;7653;48.994;9.212;2023-04-03T06:12:55;3.70;36.30
15105;DHT22;7653;48.994;9.212;2023-04-03T06:15:21;3.50;36.60
15105;DHT22;7653;48.994;9.212;2023-04-03T06:17:47;3.60;36.30
15105;DHT22;7653;48.994;9.212;2023-04-03T06:20:13;3.60;36.30
15105;DHT22;7653;48.994;9.212;2023-04-03T06:22:39;3.50;37.30
15105;DHT22;7653;48.994;9.212;2023-04-03T06:25:05;3.60;36.90
15105;DHT22;7653;48.994;9.212;2023-04-03T06:27:31;3.60;37.60
15105;DHT22;7653;48.994;9.212;2023-04-03T06:29:57;3.70;36.60
15105;DHT22;7653;48.994;9.212;2023-04-03T06:32:22;3.60;36.30
15105;DHT22;7653;48.994;9.212;2023-04-03T06:34:48;3.80;36.50
15105;DHT22;7653;48.994;9.212;2023-04-03T06:37:19;3.90;35.50
15105;DHT22;7653;48.994;9.212;2023-04-03T06:39:45;4.00;36.60
15105;DHT22;7653;48.994;9.212;2023-04-03T06:42:11;3.90;36.50
15105;DHT22;7653;48.994;9.212;2023-04-03T06:44:37;4.10;36.70
15105;DHT22;7653;48.994;9.212;2023-04-03T06:47:02;4.10;36.00
15105;DHT22;7653;48.994;9.212;2023-04-03T06:49:28;3.80;36.70
15105;DHT22;7653;48.994;9.212;2023-04-03T06:51:55;3.90;36.50
15105;DHT22;7653;48.994;9.212;2023-04-03T06:54:21;4.10;36.50
15105;DHT22;7653;48.994;9.212;2023-04-03T06:56:47;4.10;36.70
15105;DHT22;7653;48.994;9.212;2023-04-03T06:59:13;4.20;36.80
15105;DHT22;7653;48.994;9.212;2023-04-03T07:01:40;4.10;36.70
15105;DHT22;7653;48.994;9.212;2023-04-03T07:04:06;4.10;36.70
15105;DHT22;7653;48.994;9.212;2023-04-03T07:06:31;4.10;37.00
15105;DHT22;7653;48.994;9.212;2023-04-03T07:08:59;4.10;36.90
15105;DHT22;7653;48.994;9.212;2023-04-03T07:11:25;3.90;38.00
15105;DHT22;7653;48.994;9.212;2023-04-03T07:13:51;4.10;36.80
15105;DHT22;7653;48.994;9.212;2023-04-03T07:16:18;4.20;37.60
15105;DHT22;7653;48.994;9.212;2023-04-03T07:18:44;4.30;36.80
15105;DHT22;7653;48.994;9.212;2023-04-03T07:21:10;4.30;36.30
15105;DHT22;7653;48.994;9.212;2023-04-03T07:23:36;4.50;37.00
15105;DHT22;7653;48.994;9.212;2023-04-03T07:26:01;4.70;37.00
15105;DHT22;7653;48.994;9.212;2023-04-03T07:28:33;4.80;36.20
15105;DHT22;7653;48.994;9.212;2023-04-03T07:31:02;4.70;34.60
15105;DHT22;7653;48.994;9.212;2023-04-03T07:33:28;4.70;36.30
15105;DHT22;7653;48.994;9.212;2023-04-03T07:35:53;4.80;36.50
15105;DHT22;7653;48.994;9.212;2023-04-03T07:38:19;5.00;35.60
15105;DHT22;7653;48.994;9.212;2023-04-03T07:40:49;4.90;35.40
15105;DHT22;7653;48.994;9.212;2023-04-03T07:43:16;4.90;35.30
15105;DHT22;7653;48.994;9.212;2023-04-03T07:45:42;5.00;35.60
15105;DHT22;7653;48.994;9.212;2023-04-03T07:48:10;5.00;35.00
15105;DHT22;7653;48.994;9.212;2023-04-03T07:50:36;5.00;36.60
15105;DHT22;7653;48.994;9.212;2023-04-03T07:53:02;5.10;35.90
15105;DHT22;7653;48.994;9.212;2023-04-03T07:55:28;5.20;34.90
15105;DHT22;7653;48.994;9.212;2023-04-03T07:57:54;5.20;36.20
15105;DHT22;7653;48.994;9.212;2023-04-03T08:00:20;5.20;35.70
15105;DHT22;7653;48.994;9.212;2023-04-03T08:02:46;5.40;33.80
15105;DHT22;7653;48.994;9.212;2023-04-03T08:05:18;5.40;34.30
15105;DHT22;7653;48.994;9.212;2023-04-03T08:07:43;5.40;33.90
15105;DHT22;7653;48.994;9.212;2023-04-03T08:10:09;5.60;33.60
15105;DHT22;7653;48.994;9.212;2023-04-03T08:12:35;5.70;30.60
15105;DHT22;7653;48.994;9.212;2023-04-03T08:15:03;5.80;33.10
15105;DHT22;7653;48.994;9.212;2023-04-03T08:17:29;5.90;32.00
15105;DHT22;7653;48.994;9.212;2023-04-03T08:19:54;5.60;31.20
15105;DHT22;7653;48.994;9.212;2023-04-03T08:22:20;5.50;33.50
15105;DHT22;7653;48.994;9.212;2023-04-03T08:24:46;5.70;33.40
15105;DHT22;7653;48.994;9.212;2023-04-03T08:27:12;5.60;30.70
15105;DHT22;7653;48.994;9.212;2023-04-03T08:29:38;5.80;30.40
15105;DHT22;7653;48.994;9.212;2023-04-03T08:32:04;6.20;32.20
15105;DHT22;7653;48.994;9.212;2023-04-03T08:34:30;6.30;28.90
15105;DHT22;7653;48.994;9.212;2023-04-03T08:37:02;6.30;28.90
15105;DHT22;7653;48.994;9.212;2023-04-03T08:39:28;6.40;29.00
15105;DHT22;7653;48.994;9.212;2023-04-03T08:41:58;6.70;29.20
15105;DHT22;7653;48.994;9.212;2023-04-03T08:44:45;6.80;29.10
15105;DHT22;7653;48.994;9.212;2023-04-03T08:47:27;6.70;26.40
15105;DHT22;7653;48.994;9.212;2023-04-03T08:49:59;6.40;27.60
15105;DHT22;7653;48.994;9.212;2023-04-03T08:53:01;6.30;27.40
15105;DHT22;7653;48.994;9.212;2023-04-03T08:55:44;6.00;27.40
15105;DHT22;7653;48.994;9.212;2023-04-03T08:58:33;6.00;27.50
15105;DHT22;7653;48.994;9.212;2023-04-03T09:01:15;6.10;29.00
15105;DHT22;7653;48.994;9.212;2023-04-03T09:03:42;6.20;27.80
15105;DHT22;7653;48.994;9.212;2023-04-03T09:06:12;6.20;26.80
15105;DHT22;7653;48.994;9.212;2023-04-03T09:20:41;6.00;28.70
15105;DHT22;7653;48.994;9.212;2023-04-03T09:23:32;6.30;28.20
15105;DHT22;7653;48.994;9.212;2023-04-03T09:26:07;6.10;28.00
15105;DHT22;7653;48.994;9.212;2023-04-03T09:28:38;6.10;27.10
15105;DHT22;7653;48.994;9.212;2023-04-03T09:31:23;6.00;28.30
15105;DHT22;7653;48.994;9.212;2023-04-03T09:33:52;6.60;28.00
15105;DHT22;7653;48.994;9.212;2023-04-03T09:36:45;6.50;26.90
15105;DHT22;7653;48.994;9.212;2023-04-03T09:39:26;6.10;27.70
15105;DHT22;7653;48.994;9.212;2023-04-03T09:42:01;6.00;27.90
15105;DHT22;7653;48.994;9.212;2023-04-03T09:44:38;6.00;28.30
15105;DHT22;7653;48.994;9.212;2023-04-03T09:47:27;6.50;29.00
15105;DHT22;7653;48.994;9.212;2023-04-03T09:52:48;6.70;27.50
15105;DHT22;7653;48.994;9.212;2023-04-03T09:55:18;6.90;27.00
15105;DHT22;7653;48.994;9.212;2023-04-03T09:57:47;6.50;26.20
15105;DHT22;7653;48.994;9.212;2023-04-03T10:00:33;6.40;25.80
15105;DHT22;7653;48.994;9.212;2023-04-03T10:02:59;6.50;27.30
15105;DHT22;7653;48.994;9.212;2023-04-03T10:10:45;6.80;26.50
15105;DHT22;7653;48.994;9.212;2023-04-03T10:13:16;6.70;25.80
15105;DHT22;7653;48.994;9.212;2023-04-03T10:26:41;6.70;25.90
15105;DHT22;7653;48.994;9.212;2023-04-03T10:34:53;6.40;25.60
15105;DHT22;7653;48.994;9.212;2023-04-03T10:37:32;6.20;25.50
15105;DHT22;7653;48.994;9.212;2023-04-03T10:46:34;6.30;26.10
15105;DHT22;7653;48.994;9.212;2023-04-03T10:56:31;6.50;24.30
15105;DHT22;7653;48.994;9.212;2023-04-03T11:02:27;7.20;23.00
15105;DHT22;7653;48.994;9.212;2023-04-03T11:05:02;6.70;21.50
15105;DHT22;7653;48.994;9.212;2023-04-03T11:07:38;6.80;22.30
15105;DHT22;7653;48.994;9.212;2023-04-03T11:10:12;7.00;22.60
15105;DHT22;7653;48.994;9.212;2023-04-03T11:12:53;6.80;22.30
15105;DHT22;7653;48.994;9.212;2023-04-03T11:15:20;6.80;21.20
15105;DHT22;7653;48.994;9.212;2023-04-03T11:17:55;6.80;21.70
15105;DHT22;7653;48.994;9.212;2023-04-03T11:20:28;6.80;21.20
15105;DHT22;7653;48.994;9.212;2023-04-03T11:23:03;6.80;21.70
15105;DHT22;7653;48.994;9.212;2023-04-03T11:25:31;7.00;22.40
15105;DHT22;7653;48.994;9.212;2023-04-03T11:28:03;7.00;20.50
15105;DHT22;7653;48.994;9.212;2023-04-03T11:30:44;6.90;19.20
15105;DHT22;7653;48.994;9.212;2023-04-03T11:36:21;7.00;20.80
15105;DHT22;7653;48.994;9.212;2023-04-03T11:38:49;7.10;19.00
15105;DHT22;7653;48.994;9.212;2023-04-03T11:41:26;7.10;19.50
15105;DHT22;7653;48.994;9.212;2023-04-03T11:44:25;6.90;19.20
15105;DHT22;7653;48.994;9.212;2023-04-03T11:46:57;7.10;18.80
15105;DHT22;7653;48.994;9.212;2023-04-03T12:21:17;7.20;17.60
15105;DHT22;7653;48.994;9.212;2023-04-03T12:45:47;7.60;13.80
15105;DHT22;7653;48.994;9.212;2023-04-03T12:48:24;7.30;13.00
15105;DHT22;7653;48.994;9.212;2023-04-03T12:50:54;7.70;14.60
15105;DHT22;7653;48.994;9.212;2023-04-03T12:53:22;7.70;13.50
15105;DHT22;7653;48.994;9.212;2023-04-03T12:55:57;7.90;11.50
15105;DHT22;7653;48.994;9.212;2023-04-03T12:58:25;8.00;13.60
15105;DHT22;7653;48.994;9.212;2023-04-03T13:03:34;8.80;13.10
15105;DHT22;7653;48.994;9.212;2023-04-03T13:06:02;9.00;10.10
15105;DHT22;7653;48.994;9.212;2023-04-03T13:08:29;9.30;11.70
15105;DHT22;7653;48.994;9.212;2023-04-03T13:11:06;9.10;12.40
15105;DHT22;7653;48.994;9.212;2023-04-03T13:13:33;8.50;12.60
15105;DHT22;7653;48.994;9.212;2023-04-03T13:15:59;8.20;12.80
15105;DHT22;7653;48.994;9.212;2023-04-03T13:18:31;8.40;12.10
15105;DHT22;7653;48.994;9.212;2023-04-03T13:21:05;7.90;11.60
15105;DHT22;7653;48.994;9.212;2023-04-03T13:23:33;8.00;11.60
15105;DHT22;7653;48.994;9.212;2023-04-03T13:25:59;9.00;12.30
15105;DHT22;7653;48.994;9.212;2023-04-03T13:28:29;9.20;10.30
15105;DHT22;7653;48.994;9.212;2023-04-03T13:33:26;8.60;9.90
15105;DHT22;7653;48.994;9.212;2023-04-03T13:36:16;8.20;11.80
15105;DHT22;7653;48.994;9.212;2023-04-03T13:38:42;8.20;11.20
15105;DHT22;7653;48.994;9.212;2023-04-03T13:41:46;8.00;11.70
15105;DHT22;7653;48.994;9.212;2023-04-03T13:46:42;8.30;8.20
15105;DHT22;7653;48.994;9.212;2023-04-03T13:51:44;8.00;10.30
15105;DHT22;7653;48.994;9.212;2023-04-03T13:54:36;8.30;11.10
15105;DHT22;7653;48.994;9.212;2023-04-03T13:57:03;8.50;9.80
15105;DHT22;7653;48.994;9.212;2023-04-03T13:59:31;8.30;8.30
15105;DHT22;7653;48.994;9.212;2023-04-03T14:04:43;7.80;11.20
15105;DHT22;7653;48.994;9.212;2023-04-03T14:07:10;8.20;12.60
15105;DHT22;7653;48.994;9.212;2023-04-03T14:09:36;8.30;11.50
15105;DHT22;7653;48.994;9.212;2023-04-03T14:12:06;8.20;12.30
15105;DHT22;7653;48.994;9.212;2023-04-03T14:14:36;8.40;9.70
15105;DHT22;7653;48.994;9.212;2023-04-03T14:17:14;8.20;11.70
15105;DHT22;7653;48.994;9.212;2023-04-03T14:19:41;8.40;10.90
15105;DHT22;7653;48.994;9.212;2023-04-03T14:22:18;8.00;10.50
15105;DHT22;7653;48.994;9.212;2023-04-03T14:24:45;7.90;11.20
15105;DHT22;7653;48.994;9.212;2023-04-03T14:27:23;8.50;10.40
15105;DHT22;7653;48.994;9.212;2023-04-03T14:29:52;9.60;9.50
15105;DHT22;7653;48.994;9.212;2023-04-03T14:32:20;9.60;6.70
15105;DHT22;7653;48.994;9.212;2023-04-03T14:34:46;8.50;9.80
15105;DHT22;7653;48.994;9.212;2023-04-03T14:37:14;8.40;10.50
15105;DHT22;7653;48.994;9.212;2023-04-03T14:39:41;8.30;9.40
15105;DHT22;7653;48.994;9.212;2023-04-03T14:42:16;8.60;8.30
15105;DHT22;7653;48.994;9.212;2023-04-03T14:44:42;9.70;9.30
15105;DHT22;7653;48.994;9.212;2023-04-03T14:47:16;10.60;6.10
15105;DHT22;7653;48.994;9.212;2023-04-03T14:49:44;10.60;4.10
15105;DHT22;7653;48.994;9.212;2023-04-03T14:52:19;10.60;4.50
15105;DHT22;7653;48.994;9.212;2023-04-03T14:54:45;10.90;4.70
15105;DHT22;7653;48.994;9.212;2023-04-03T14:57:13;9.40;6.60
15105;DHT22;7653;48.994;9.212;2023-04-03T14:59:39;8.80;9.10
15105;DHT22;7653;48.994;9.212;2023-04-03T15:02:42;8.50;9.10
15105;DHT22;7653;48.994;9.212;2023-04-03T15:05:10;8.60;9.90
15105;DHT22;7653;48.994;9.212;2023-04-03T15:07:42;8.30;7.80
15105;DHT22;7653;48.994;9.212;2023-04-03T15:10:23;8.60;8.10
15105;DHT22;7653;48.994;9.212;2023-04-03T15:12:50;8.10;6.80
15105;DHT22;7653;48.994;9.212;2023-04-03T15:15:17;8.50;8.30
15105;DHT22;7653;48.994;9.212;2023-04-03T15:17:45;8.50;7.60
15105;DHT22;7653;48.994;9.212;2023-04-03T15:20:22;9.10;7.30
15105;DHT22;7653;48.994;9.212;2023-04-03T15:22:48;9.50;6.10
15105;DHT22;7653;48.994;9.212;2023-04-03T15:25:14;9.10;6.60
15105;DHT22;7653;48.994;9.212;2023-04-03T15:27:40;9.30;6.20
15105;DHT22;7653;48.994;9.212;2023-04-03T15:30:11;8.70;5.70
15105;DHT22;7653;48.994;9.212;2023-04-03T15:32:37;9.20;7.10
15105;DHT22;7653;48.994;9.212;2023-04-03T15:35:03;9.40;6.10
15105;DHT22;7653;48.994;9.212;2023-04-03T15:37:28;8.80;4.70
15105;DHT22;7653;48.994;9.212;2023-04-03T15:39:54;8.60;5.60
15105;DHT22;7653;48.994;9.212;2023-04-03T15:42:20;8.60;6.90
15105;DHT22;7653;48.994;9.212;2023-04-03T15:44:46;8.90;6.50
15105;DHT22;7653;48.994;9.212;2023-04-03T15:47:12;8.90;5.80
15105;DHT22;7653;48.994;9.212;2023-04-03T15:49:38;8.50;6.90
15105;DHT22;7653;48.994;9.212;2023-04-03T15:52:04;8.30;7.50
15105;DHT22;7653;48.994;9.212;2023-04-03T15:54:29;8.60;7.90
15105;DHT22;7653;48.994;9.212;2023-04-03T15:56:55;8.60;6.50
15105;DHT22;7653;48.994;9.212;2023-04-03T15:59:21;9.40;5.80
15105;DHT22;7653;48.994;9.212;2023-04-03T16:01:48;9.40;6.10
15105;DHT22;7653;48.994;9.212;2023-04-03T16:04:14;9.50;6.10
15105;DHT22;7653;48.994;9.212;2023-04-03T16:06:40;9.00;5.80
15105;DHT22;7653;48.994;9.212;2023-04-03T16:09:06;9.20;7.50
15105;DHT22;7653;48.994;9.212;2023-04-03T16:11:32;9.00;7.30
15105;DHT22;7653;48.994;9.212;2023-04-03T16:14:00;8.30;6.10
15105;DHT22;7653;48.994;9.212;2023-04-03T16:16:26;8.40;7.10
15105;DHT22;7653;48.994;9.212;2023-04-03T16:18:54;8.10;7.90
15105;DHT22;7653;48.994;9.212;2023-04-03T16:21:20;8.00;8.40
15105;DHT22;7653;48.994;9.212;2023-04-03T16:23:46;8.40;7.40
15105;DHT22;7653;48.994;9.212;2023-04-03T16:26:12;8.40;5.50
15105;DHT22;7653;48.994;9.212;2023-04-03T16:28:38;8.40;6.70
15105;DHT22;7653;48.994;9.212;2023-04-03T16:31:05;8.70;5.60
15105;DHT22;7653;48.994;9.212;2023-04-03T16:33:31;8.70;5.60
15105;DHT22;7653;48.994;9.212;2023-04-03T16:35:57;8.70;5.60
15105;DHT22;7653;48.994;9.212;2023-04-03T16:38:22;8.10;5.90
15105;DHT22;7653;48.994;9.212;2023-04-03T16:40:49;8.10;7.90
15105;DHT22;7653;48.994;9.212;2023-04-03T16:43:15;8.00;7.50
15105;DHT22;7653;48.994;9.212;2023-04-03T16:45:41;8.10;7.50
15105;DHT22;7653;48.994;9.212;2023-04-03T16:48:07;8.30;7.50
15105;DHT22;7653;48.994;9.212;2023-04-03T16:50:33;8.40;7.30
15105;DHT22;7653;48.994;9.212;2023-04-03T16:52:59;8.20;7.50
15105;DHT22;7653;48.994;9.212;2023-04-03T16:55:24;8.20;8.60
15105;DHT22;7653;48.994;9.212;2023-04-03T16:57:50;8.20;7.70
15105;DHT22;7653;48.994;9.212;2023-04-03T17:00:16;8.10;8.20
15105;DHT22;7653;48.994;9.212;2023-04-03T17:02:42;7.70;8.50
15105;DHT22;7653;48.994;9.212;2023-04-03T17:05:08;7.50;9.20
15105;DHT22;7653;48.994;9.212;2023-04-03T17:07:33;7.50;8.20
15105;DHT22;7653;48.994;9.212;2023-04-03T17:09:59;7.50;9.10
15105;DHT22;7653;48.994;9.212;2023-04-03T17:12:25;7.30;8.90
15105;DHT22;7653;48.994;9.212;2023-04-03T17:14:51;7.30;9.10
15105;DHT22;7653;48.994;9.212;2023-04-03T17:17:22;7.10;9.80
15105;DHT22;7653;48.994;9.212;2023-04-03T17:19:49;7.00;9.70
15105;DHT22;7653;48.994;9.212;2023-04-03T17:22:15;7.00;10.20
15105;DHT22;7653;48.994;9.212;2023-04-03T17:24:43;6.80;9.70
15105;DHT22;7653;48.994;9.212;2023-04-03T17:27:09;6.90;8.80
15105;DHT22;7653;48.994;9.212;2023-04-03T17:29:34;7.10;9.70
15105;DHT22;7653;48.994;9.212;2023-04-03T17:32:00;7.10;9.70
15105;DHT22;7653;48.994;9.212;2023-04-03T17:34:26;6.90;9.10
15105;DHT22;7653;48.994;9.212;2023-04-03T17:36:51;6.80;9.50
15105;DHT22;7653;48.994;9.212;2023-04-03T17:39:17;6.80;9.50
15105;DHT22;7653;48.994;9.212;2023-04-03T17:41:43;6.80;9.80
15105;DHT22;7653;48.994;9.212;2023-04-03T17:44:10;6.80;9.60
15105;DHT22;7653;48.994;9.212;2023-04-03T17:46:36;6.70;9.00
15105;DHT22;7653;48.994;9.212;2023-04-03T17:49:02;6.80;9.10
15105;DHT22;7653;48.994;9.212;2023-04-03T17:51:29;6.70;8.70
15105;DHT22;7653;48.994;9.212;2023-04-03T17:53:56;6.40;9.40
15105;DHT22;7653;48.994;9.212;2023-04-03T17:56:24;6.30;10.00
15105;DHT22;7653;48.994;9.212;2023-04-03T17:58:53;6.20;10.20
15105;DHT22;7653;48.994;9.212;2023-04-03T18:01:23;6.10;11.20
15105;DHT22;7653;48.994;9.212;2023-04-03T18:03:51;6.00;11.10
15105;DHT22;7653;48.994;9.212;2023-04-03T18:06:19;5.90;10.40
15105;DHT22;7653;48.994;9.212;2023-04-03T18:08:54;5.80;10.30
15105;DHT22;7653;48.994;9.212;2023-04-03T18:11:24;5.80;11.40
15105;DHT22;7653;48.994;9.212;2023-04-03T18:13:52;5.70;11.40
15105;DHT22;7653;48.994;9.212;2023-04-03T18:16:18;5.70;11.40
15105;DHT22;7653;48.994;9.212;2023-04-03T18:18:43;5.60;11.40
15105;DHT22;7653;48.994;9.212;2023-04-03T18:21:11;5.50;12.10
15105;DHT22;7653;48.994;9.212;2023-04-03T18:23:40;5.40;12.00
15105;DHT22;7653;48.994;9.212;2023-04-03T18:26:08;5.40;12.00
15105;DHT22;7653;48.994;9.212;2023-04-03T18:28:35;5.30;12.00